Time;durP1;ratioP1;P1;durP2;ratioP2;P2;SDS_P1;SDS_P2;PMS_P1;PMS_P2;Temp;Humidity;BMP_temperature;BMP_pressure;BME280_temperature;BME280_humidity;BME280_pressure;Samples;Min_cycle;Max_cycle;Signal;HPM_P1;HPM_P2
2021/09/10 00:01:57;;;;;;;1.38;0.70;;;8.00;99.90;;;;;;5010143;28;20034;-68
2021/09/10 00:04:23;;;;;;;3.08;0.50;;;8.00;99.90;;;;;;5009922;28;20022;-68
2021/09/10 00:06:50;;;;;;;0.50;0.50;;;8.00;99.90;;;;;;5009866;28;20030;-68
2021/09/10 00:09:19;;;;;;;4.72;0.75;;;8.00;99.90;;;;;;5010013;28;20033;-68
2021/09/10 00:11:45;;;;;;;1.73;0.40;;;8.00;99.90;;;;;;5009694;28;20101;-68
2021/09/10 00:14:10;;;;;;;0.30;0.30;;;7.90;99.90;;;;;;5009534;28;20581;-68
2021/09/10 00:16:36;;;;;;;3.90;0.63;;;7.90;99.90;;;;;;5009731;28;20028;-68
2021/09/10 00:19:02;;;;;;;0.52;0.43;;;7.90;99.90;;;;;;5009893;28;20373;-68
2021/09/10 00:21:28;;;;;;;2.42;0.40;;;7.80;99.90;;;;;;5009422;28;20022;-68
2021/09/10 00:23:54;;;;;;;0.40;0.40;;;7.80;99.90;;;;;;5009860;28;20037;-68
2021/09/10 00:26:20;;;;;;;1.45;0.95;;;7.70;99.90;;;;;;5009272;28;20084;-68
2021/09/10 00:28:45;;;;;;;1.02;0.43;;;7.70;99.90;;;;;;5009904;28;20073;-68
2021/09/10 00:31:11;;;;;;;0.95;0.50;;;7.70;99.90;;;;;;5009373;28;20022;-68
2021/09/10 00:33:37;;;;;;;2.20;0.50;;;7.70;99.90;;;;;;5009299;28;20374;-68
2021/09/10 00:36:03;;;;;;;0.80;0.43;;;7.60;99.90;;;;;;5007686;28;20037;-68
2021/09/10 00:38:30;;;;;;;2.05;0.60;;;7.60;99.90;;;;;;4989676;28;20026;-68
2021/09/10 00:40:57;;;;;;;0.82;0.50;;;7.50;99.90;;;;;;4989752;28;20520;-68
2021/09/10 00:43:23;;;;;;;0.50;0.50;;;7.50;99.90;;;;;;4995756;28;20022;-68
2021/09/10 00:45:48;;;;;;;0.75;0.52;;;7.40;99.90;;;;;;5009162;28;20083;-68
2021/09/10 00:48:19;;;;;;;0.40;0.40;;;7.30;99.90;;;;;;5005193;28;20110;-67
2021/09/10 00:50:45;;;;;;;0.40;0.40;;;7.40;99.90;;;;;;5000110;28;20025;-68
2021/09/10 00:53:12;;;;;;;0.50;0.50;;;7.30;99.90;;;;;;5075037;28;20134;-68
2021/09/10 00:55:38;;;;;;;1.00;0.50;;;7.30;99.90;;;;;;5013712;28;20485;-68
2021/09/10 00:58:04;;;;;;;0.55;0.50;;;7.20;99.90;;;;;;5009188;28;20022;-68
2021/09/10 01:00:29;;;;;;;0.40;0.40;;;7.20;99.90;;;;;;5006145;28;20538;-68
2021/09/10 01:02:55;;;;;;;0.95;0.40;;;7.20;99.90;;;;;;4998540;28;20049;-67
2021/09/10 01:05:21;;;;;;;0.75;0.60;;;7.20;99.90;;;;;;4995062;28;20374;-67
2021/09/10 01:07:48;;;;;;;2.78;0.57;;;7.20;99.90;;;;;;5009313;28;20029;-67
2021/09/10 01:10:14;;;;;;;0.95;0.50;;;7.20;99.90;;;;;;5008733;28;20056;-67
2021/09/10 01:12:41;;;;;;;0.50;0.50;;;7.20;99.90;;;;;;4989881;28;20106;-67
2021/09/10 01:15:07;;;;;;;0.40;0.40;;;7.10;99.90;;;;;;4998210;28;20038;-67
2021/09/10 01:46:37;;;;;;;1.77;0.60;;;7.00;99.90;;;;;;5008581;28;20033;-68
2021/09/10 01:49:03;;;;;;;1.88;0.50;;;6.90;99.90;;;;;;5006429;28;20477;-68
2021/09/10 01:51:33;;;;;;;1.60;0.40;;;6.90;99.90;;;;;;4994824;28;20060;-68
2021/09/10 01:54:00;;;;;;;0.50;0.50;;;6.90;99.90;;;;;;4995796;28;20553;-68
2021/09/10 01:56:27;;;;;;;0.50;0.50;;;6.90;99.90;;;;;;5007048;28;20041;-68
2021/09/10 01:58:53;;;;;;;0.32;0.30;;;6.90;99.90;;;;;;5008571;28;20033;-68
2021/09/10 02:01:26;;;;;;;0.60;0.50;;;6.90;99.90;;;;;;5007968;28;20405;-68
2021/09/10 02:03:52;;;;;;;0.88;0.50;;;6.90;99.90;;;;;;5008606;28;20042;-68
2021/09/10 02:06:18;;;;;;;1.35;0.52;;;6.80;99.90;;;;;;5008233;28;20022;-68
2021/09/10 02:08:44;;;;;;;0.40;0.40;;;6.80;99.90;;;;;;5008179;28;20505;-68
2021/09/10 02:11:10;;;;;;;1.27;0.50;;;6.80;99.90;;;;;;5008052;28;20045;-68
2021/09/10 02:13:36;;;;;;;0.95;0.40;;;6.90;99.90;;;;;;5008304;28;20034;-68
2021/09/10 02:16:02;;;;;;;2.30;0.40;;;6.80;99.90;;;;;;5008267;28;20071;-68
2021/09/10 02:18:28;;;;;;;0.50;0.40;;;6.80;99.90;;;;;;5007812;28;20376;-68
2021/09/10 02:20:53;;;;;;;0.60;0.60;;;6.80;99.90;;;;;;5008053;28;20028;-68
2021/09/10 02:23:19;;;;;;;0.70;0.52;;;6.80;99.90;;;;;;5006823;28;20117;-68
2021/09/10 02:25:45;;;;;;;2.38;0.47;;;6.70;99.90;;;;;;4995703;28;20477;-68
2021/09/10 02:28:11;;;;;;;0.95;0.50;;;6.70;99.90;;;;;;4995047;28;20373;-68
2021/09/10 02:30:37;;;;;;;0.40;0.40;;;6.70;99.90;;;;;;5003761;28;20453;-68
2021/09/10 02:33:02;;;;;;;0.50;0.40;;;6.70;99.90;;;;;;5002832;28;20026;-68
2021/09/10 02:35:28;;;;;;;0.50;0.50;;;6.60;99.90;;;;;;5010928;28;20117;-68
2021/09/10 02:37:54;;;;;;;0.85;0.50;;;6.60;99.90;;;;;;5011443;28;20024;-68
2021/09/10 02:40:21;;;;;;;0.40;0.40;;;6.60;99.90;;;;;;5011262;28;20125;-68
2021/09/10 02:42:47;;;;;;;2.33;0.52;;;6.60;99.90;;;;;;5011387;28;20026;-68
2021/09/10 02:45:13;;;;;;;2.05;0.55;;;6.50;99.90;;;;;;5011276;28;20040;-68
2021/09/10 02:47:39;;;;;;;0.50;0.40;;;6.50;99.90;;;;;;4997148;28;20025;-68
2021/09/10 02:50:05;;;;;;;4.65;0.80;;;6.50;99.90;;;;;;5011289;28;20029;-68
2021/09/10 02:52:34;;;;;;;1.73;0.60;;;6.50;99.90;;;;;;5010916;28;20026;-68
2021/09/10 02:54:59;;;;;;;0.70;0.50;;;6.50;99.90;;;;;;5011298;28;20096;-68
2021/09/10 02:57:25;;;;;;;0.40;0.40;;;6.50;99.90;;;;;;5009555;28;20488;-70
2021/09/10 02:59:51;;;;;;;2.55;0.50;;;6.50;99.90;;;;;;5011202;28;20082;-69
2021/09/10 03:02:17;;;;;;;0.75;0.40;;;6.40;99.90;;;;;;5010769;28;20428;-69
2021/09/10 03:04:45;;;;;;;2.40;0.73;;;6.40;99.90;;;;;;5041486;28;20019;-69
2021/09/10 03:07:11;;;;;;;1.10;0.45;;;6.40;99.90;;;;;;5050852;27;20481;-69
2021/09/10 03:09:37;;;;;;;0.40;0.40;;;6.40;99.90;;;;;;5010471;28;20022;-69
2021/09/10 03:12:03;;;;;;;0.43;0.43;;;6.30;99.90;;;;;;5010869;28;20022;-69
2021/09/10 03:14:31;;;;;;;0.47;0.40;;;6.30;99.90;;;;;;5010353;28;20492;-69
2021/09/10 03:16:57;;;;;;;0.38;0.38;;;6.30;99.90;;;;;;5010814;28;20053;-69
2021/09/10 03:19:27;;;;;;;0.68;0.35;;;6.30;99.90;;;;;;5010249;28;20059;-68
2021/09/10 03:21:52;;;;;;;1.20;0.75;;;6.30;99.90;;;;;;5047801;28;20107;-68
2021/09/10 03:24:19;;;;;;;1.10;0.52;;;6.30;99.90;;;;;;5093586;28;20157;-68
2021/09/10 03:26:45;;;;;;;1.10;0.60;;;6.30;99.90;;;;;;5033893;28;20504;-68
2021/09/10 03:29:12;;;;;;;0.40;0.40;;;6.30;99.90;;;;;;5010351;28;20026;-68
2021/09/10 03:31:38;;;;;;;0.50;0.50;;;6.40;99.90;;;;;;5010484;28;20034;-68
2021/09/10 03:34:04;;;;;;;0.57;0.50;;;6.30;99.90;;;;;;5004993;28;20026;-68
2021/09/10 03:36:30;;;;;;;0.50;0.40;;;6.30;99.90;;;;;;5001022;28;20098;-68
2021/09/10 03:38:55;;;;;;;1.83;0.50;;;6.30;99.90;;;;;;5010369;28;20366;-70
2021/09/10 03:41:21;;;;;;;1.45;0.55;;;6.20;99.90;;;;;;5010013;28;20036;-70
2021/09/10 03:43:52;;;;;;;0.50;0.50;;;6.30;99.90;;;;;;5009965;28;20470;-69
2021/09/10 03:46:21;;;;;;;0.68;0.50;;;6.20;99.90;;;;;;5010111;28;20033;-69
2021/09/10 03:48:48;;;;;;;0.88;0.60;;;6.20;99.90;;;;;;5082547;28;20098;-69
2021/09/10 03:51:13;;;;;;;2.75;0.60;;;6.20;99.90;;;;;;5009889;28;20054;-69
2021/09/10 03:53:39;;;;;;;3.13;0.90;;;6.20;99.90;;;;;;5009951;28;20096;-69
2021/09/10 03:56:05;;;;;;;0.65;0.52;;;6.20;99.90;;;;;;5010206;28;20235;-69
2021/09/10 03:58:31;;;;;;;0.47;0.47;;;6.20;99.90;;;;;;5009906;28;20544;-69
2021/09/10 04:00:57;;;;;;;0.90;0.60;;;6.10;99.90;;;;;;5009741;28;20109;-69
2021/09/10 04:03:23;;;;;;;0.55;0.40;;;6.10;99.90;;;;;;5009819;28;20470;-69
2021/09/10 04:05:49;;;;;;;1.75;0.40;;;6.10;99.90;;;;;;5009949;28;20037;-69
2021/09/10 04:08:15;;;;;;;0.93;0.52;;;6.10;99.90;;;;;;5009997;28;20491;-69
2021/09/10 04:10:41;;;;;;;1.67;0.57;;;6.10;99.90;;;;;;5009783;28;20034;-69
2021/09/10 04:13:08;;;;;;;2.17;0.50;;;6.10;99.90;;;;;;5009970;28;20022;-69
2021/09/10 04:15:33;;;;;;;0.90;0.55;;;6.10;99.90;;;;;;5009550;28;20030;-69
2021/09/10 04:17:59;;;;;;;0.47;0.47;;;6.10;99.90;;;;;;5009778;28;20029;-70
2021/09/10 04:20:25;;;;;;;2.70;0.57;;;6.10;99.90;;;;;;5000794;28;20133;-70
2021/09/10 04:22:51;;;;;;;0.82;0.65;;;6.10;99.90;;;;;;5003880;28;20105;-69
2021/09/10 04:25:17;;;;;;;0.68;0.60;;;6.10;99.90;;;;;;5079622;28;20044;-70
2021/09/10 04:27:43;;;;;;;0.50;0.50;;;6.10;99.90;;;;;;5009431;28;20104;-69
2021/09/10 04:30:10;;;;;;;0.57;0.57;;;6.10;99.90;;;;;;5082243;28;20149;-69
2021/09/10 04:32:37;;;;;;;2.40;0.60;;;6.10;99.90;;;;;;5009501;28;20109;-68
2021/09/10 04:35:04;;;;;;;1.33;0.60;;;6.20;99.90;;;;;;5009574;28;20030;-75
2021/09/10 04:37:29;;;;;;;3.35;0.70;;;6.20;99.90;;;;;;5039272;28;20032;-74
2021/09/10 04:39:56;;;;;;;0.60;0.60;;;8.00;99.90;;;;;;5051378;28;20075;-68
2021/09/10 04:42:21;;;;;;;1.90;0.60;;;9.30;99.90;;;;;;5009095;28;20062;-69
2021/09/10 04:44:48;;;;;;;1.38;0.47;;;9.20;99.90;;;;;;5009266;28;20110;-69
2021/09/10 04:47:14;;;;;;;2.40;0.70;;;9.10;99.90;;;;;;5032610;28;20037;-69
2021/09/10 04:49:41;;;;;;;1.63;0.70;;;9.20;99.90;;;;;;4996942;28;20022;-69
2021/09/10 04:52:07;;;;;;;2.70;0.60;;;9.40;99.90;;;;;;4997953;28;20058;-70
2021/09/10 04:54:33;;;;;;;1.02;0.40;;;9.60;99.90;;;;;;4990777;28;20061;-70
2021/09/10 04:56:59;;;;;;;0.45;0.32;;;9.90;99.90;;;;;;5000338;28;20034;-69
2021/09/10 04:59:25;;;;;;;0.75;0.40;;;10.30;99.90;;;;;;5018595;28;20028;-69
2021/09/10 05:01:51;;;;;;;0.52;0.50;;;10.60;99.90;;;;;;4988887;28;20030;-68
2021/09/10 05:04:18;;;;;;;0.73;0.50;;;10.80;99.90;;;;;;5000227;28;20053;-70
2021/09/10 05:06:44;;;;;;;1.17;0.60;;;10.90;99.90;;;;;;5004352;28;20389;-68
2021/09/10 05:09:09;;;;;;;1.55;0.60;;;11.30;99.90;;;;;;5002836;28;20026;-71
2021/09/10 05:11:35;;;;;;;2.08;0.70;;;11.40;99.90;;;;;;4994806;28;20034;-73
2021/09/10 05:14:01;;;;;;;0.40;0.40;;;11.60;99.90;;;;;;5020059;28;20147;-71
2021/09/10 05:16:27;;;;;;;1.55;0.40;;;11.70;99.90;;;;;;5010854;28;20032;-71
2021/09/10 05:18:52;;;;;;;0.40;0.40;;;11.90;99.90;;;;;;5024470;28;20101;-71
2021/09/10 05:21:18;;;;;;;1.20;0.50;;;12.10;99.90;;;;;;5021351;28;20506;-71
2021/09/10 05:23:44;;;;;;;0.85;0.77;;;12.30;99.90;;;;;;5054562;28;20428;-71
2021/09/10 05:26:09;;;;;;;2.08;0.40;;;12.40;98.80;;;;;;5057280;28;20034;-73
2021/09/10 05:28:35;;;;;;;0.40;0.38;;;12.60;97.90;;;;;;5006238;28;20022;-72
2021/09/10 05:31:01;;;;;;;0.88;0.43;;;13.00;99.20;;;;;;4996011;28;20034;-71
2021/09/10 05:33:27;;;;;;;3.95;0.40;;;13.20;96.70;;;;;;5008606;28;20030;-69
2021/09/10 05:35:52;;;;;;;1.15;0.40;;;13.30;95.50;;;;;;5007212;28;20078;-69
2021/09/10 05:38:18;;;;;;;1.35;0.30;;;13.50;94.60;;;;;;5008726;28;20026;-69
2021/09/10 05:40:44;;;;;;;0.95;0.30;;;13.60;93.90;;;;;;5008396;28;20033;-69
2021/09/10 05:43:11;;;;;;;1.23;0.30;;;13.80;93.20;;;;;;5008670;28;20022;-70
2021/09/10 05:45:37;;;;;;;0.30;0.30;;;14.00;92.50;;;;;;5008383;28;20512;-70
2021/09/10 05:48:02;;;;;;;1.02;0.40;;;14.10;92.00;;;;;;5008432;28;20030;-70
2021/09/10 05:50:28;;;;;;;0.68;0.30;;;14.20;91.30;;;;;;5008285;28;20018;-70
2021/09/10 05:52:54;;;;;;;0.65;0.40;;;14.20;90.80;;;;;;5008305;28;20514;-71
2021/09/10 05:55:20;;;;;;;1.95;0.63;;;14.30;90.40;;;;;;5008496;28;20038;-70
2021/09/10 05:57:45;;;;;;;3.88;0.70;;;14.40;90.20;;;;;;5007991;28;20397;-70
2021/09/10 06:00:12;;;;;;;1.20;0.45;;;14.50;89.30;;;;;;5008402;28;20025;-71
2021/09/10 06:02:39;;;;;;;2.15;0.60;;;14.60;88.70;;;;;;5008153;28;20087;-71
2021/09/10 06:05:05;;;;;;;1.33;0.70;;;14.70;88.40;;;;;;5010784;28;20033;-69
2021/09/10 06:07:32;;;;;;;1.08;0.70;;;14.70;88.80;;;;;;5011577;28;20018;-66
2021/09/10 06:09:57;;;;;;;1.65;0.98;;;14.70;87.20;;;;;;5009989;28;20034;-71
2021/09/10 06:12:23;;;;;;;3.20;1.00;;;14.80;86.40;;;;;;5072586;28;20038;-71
2021/09/10 06:14:50;;;;;;;3.67;0.70;;;14.70;86.90;;;;;;5094546;28;20024;-71
2021/09/10 06:17:16;;;;;;;0.90;0.60;;;14.80;85.90;;;;;;5113979;28;20064;-67
2021/09/10 06:19:41;;;;;;;1.33;0.60;;;14.80;85.60;;;;;;5111976;28;20063;-67
2021/09/10 06:22:07;;;;;;;3.53;0.40;;;14.90;85.10;;;;;;5113807;28;20034;-67
2021/09/10 06:24:33;;;;;;;2.50;0.55;;;14.90;84.80;;;;;;5113637;28;20039;-69
2021/09/10 06:26:59;;;;;;;0.77;0.40;;;14.90;85.00;;;;;;5025077;28;20018;-68
2021/09/10 06:29:25;;;;;;;1.38;0.30;;;14.90;84.80;;;;;;5011285;28;20030;-69
2021/09/10 06:31:51;;;;;;;0.52;0.52;;;15.00;84.60;;;;;;5011126;28;20022;-68
2021/09/10 06:34:21;;;;;;;0.57;0.40;;;15.00;84.40;;;;;;5010997;28;20026;-69
2021/09/10 06:36:48;;;;;;;1.13;0.47;;;14.90;84.40;;;;;;4996711;28;20041;-74
2021/09/10 06:39:15;;;;;;;4.18;0.52;;;15.10;92.50;;;;;;5095956;28;20028;-72
2021/09/10 06:41:42;;;;;;;5.65;0.63;;;15.80;95.90;;;;;;5086059;28;20165;-73
2021/09/10 06:44:08;;;;;;;2.70;0.45;;;16.40;96.80;;;;;;5106325;28;20023;-69
2021/09/10 06:46:33;;;;;;;3.38;0.32;;;16.40;90.00;;;;;;5107362;28;20030;-69
2021/09/10 06:48:59;;;;;;;1.23;0.30;;;16.00;86.50;;;;;;5100153;28;20030;-69
2021/09/10 06:51:25;;;;;;;0.55;0.30;;;15.60;85.40;;;;;;5018023;28;20104;-69
2021/09/10 06:53:50;;;;;;;0.50;0.30;;;15.30;84.80;;;;;;5023638;28;20057;-70
2021/09/10 06:56:16;;;;;;;0.95;0.28;;;15.20;85.20;;;;;;5089585;28;20413;-70
2021/09/10 06:58:43;;;;;;;2.42;0.30;;;15.20;85.40;;;;;;5073111;27;20114;-70
2021/09/10 07:01:08;;;;;;;2.75;0.30;;;15.10;84.90;;;;;;5057672;28;20030;-70
2021/09/10 07:03:34;;;;;;;2.72;0.30;;;15.10;84.40;;;;;;5056447;28;20077;-70
2021/09/10 07:06:00;;;;;;;0.95;0.30;;;15.00;85.20;;;;;;5058444;28;20023;-69
2021/09/10 07:08:26;;;;;;;0.22;0.20;;;14.90;85.20;;;;;;4993449;28;20242;-69
2021/09/10 07:10:51;;;;;;;0.28;0.20;;;14.90;85.40;;;;;;5009968;28;20049;-69
2021/09/10 07:13:17;;;;;;;0.47;0.30;;;14.90;85.00;;;;;;5034132;28;20019;-71
2021/09/10 07:15:43;;;;;;;0.20;0.20;;;14.90;85.00;;;;;;5001024;28;20034;-70
2021/09/10 07:18:09;;;;;;;1.02;0.30;;;14.80;85.00;;;;;;5007909;28;20084;-71
2021/09/10 07:20:34;;;;;;;7.80;0.57;;;14.60;84.70;;;;;;5049191;28;20062;-71
2021/09/10 07:23:00;;;;;;;9.65;0.82;;;14.50;89.50;;;;;;5070388;28;20026;-72
2021/09/10 07:25:26;;;;;;;0.80;0.28;;;15.10;96.50;;;;;;5003812;28;20050;-75
2021/09/10 07:27:52;;;;;;;5.20;1.42;;;15.50;92.80;;;;;;4999824;28;20027;-70
2021/09/10 07:30:17;;;;;;;0.40;0.30;;;15.80;95.50;;;;;;5006683;28;20082;-70
2021/09/10 07:32:43;;;;;;;0.52;0.20;;;15.40;87.90;;;;;;5054314;28;20023;-70
2021/09/10 07:35:10;;;;;;;2.90;0.38;;;14.70;88.30;;;;;;5038107;28;20058;-70
2021/09/10 07:37:37;;;;;;;0.95;0.20;;;14.10;89.60;;;;;;5010118;28;20026;-70
2021/09/10 07:40:04;;;;;;;0.25;0.25;;;13.80;90.70;;;;;;5010465;28;20042;-70
2021/09/10 07:42:30;;;;;;;1.00;0.25;;;13.60;91.40;;;;;;5010342;28;20033;-70
2021/09/10 07:44:56;;;;;;;1.25;0.20;;;13.50;91.90;;;;;;5010370;28;20322;-70
2021/09/10 07:47:21;;;;;;;0.70;0.28;;;13.40;91.80;;;;;;5010049;28;20022;-70
2021/09/10 07:49:47;;;;;;;1.50;0.40;;;13.40;92.10;;;;;;5009976;28;20071;-70
2021/09/10 07:52:13;;;;;;;1.05;0.30;;;13.30;92.70;;;;;;5010048;28;20129;-70
2021/09/10 07:54:39;;;;;;;2.20;0.35;;;13.30;92.70;;;;;;5009723;28;20457;-70
2021/09/10 07:57:05;;;;;;;0.28;0.28;;;13.20;92.40;;;;;;5010136;28;20056;-70
2021/09/10 07:59:31;;;;;;;1.33;0.20;;;13.20;92.40;;;;;;5010157;28;20385;-70
2021/09/10 08:01:56;;;;;;;0.35;0.20;;;13.20;92.90;;;;;;5010047;28;20034;-70
2021/09/10 08:04:22;;;;;;;1.25;0.28;;;13.20;92.80;;;;;;5010240;28;20578;-70
2021/09/10 08:06:48;;;;;;;3.80;0.68;;;13.20;93.20;;;;;;5009860;28;20512;-70
2021/09/10 08:09:14;;;;;;;2.45;0.32;;;13.20;93.20;;;;;;5010056;28;20377;-70
2021/09/10 08:11:39;;;;;;;0.75;0.32;;;13.30;93.20;;;;;;5009830;28;20029;-70
2021/09/10 08:14:08;;;;;;;1.80;0.50;;;13.30;92.30;;;;;;5009778;28;20393;-70
2021/09/10 08:16:34;;;;;;;0.68;0.68;;;13.30;92.30;;;;;;5082211;28;20045;-70
2021/09/10 08:19:00;;;;;;;1.20;0.28;;;13.20;92.60;;;;;;5009753;28;20056;-70
2021/09/10 08:21:26;;;;;;;0.25;0.25;;;13.30;92.40;;;;;;4996110;28;20026;-70
2021/09/10 08:23:52;;;;;;;1.38;0.32;;;13.30;92.10;;;;;;5009591;28;20029;-70
2021/09/10 08:26:18;;;;;;;3.13;0.40;;;13.40;92.40;;;;;;5009637;28;20507;-70
2021/09/10 08:28:44;;;;;;;2.10;0.30;;;13.40;92.10;;;;;;5009433;28;20026;-70
2021/09/10 08:31:10;;;;;;;5.95;0.57;;;13.40;91.80;;;;;;5009631;28;20033;-70
2021/09/10 08:33:36;;;;;;;12.95;0.60;;;13.50;91.90;;;;;;5010122;28;20026;-71
2021/09/10 08:36:02;;;;;;;1.75;0.30;;;13.50;91.90;;;;;;5009511;28;20039;-71
2021/09/10 08:38:29;;;;;;;0.65;0.30;;;13.60;92.10;;;;;;5009745;28;20026;-71
2021/09/10 08:40:58;;;;;;;0.52;0.30;;;13.60;91.80;;;;;;5009119;28;20053;-71
2021/09/10 08:43:25;;;;;;;2.05;0.38;;;13.60;91.70;;;;;;5009251;28;20030;-71
2021/09/10 08:45:52;;;;;;;5.80;0.45;;;13.60;91.50;;;;;;5023651;28;20027;-68
2021/09/10 08:48:19;;;;;;;12.75;0.88;;;13.70;92.70;;;;;;5043947;28;20030;-72
2021/09/10 08:50:47;;;;;;;3.13;0.50;;;13.70;94.00;;;;;;5053002;28;20356;-67
2021/09/10 08:53:13;;;;;;;1.20;0.30;;;13.90;93.20;;;;;;5046865;27;20042;-68
2021/09/10 08:55:41;;;;;;;0.68;0.32;;;13.90;92.50;;;;;;5040971;28;20056;-67
2021/09/10 08:58:07;;;;;;;0.47;0.30;;;13.80;91.80;;;;;;5059716;28;20023;-67
2021/09/10 09:00:34;;;;;;;3.90;0.30;;;13.80;90.70;;;;;;5003362;28;20116;-67
2021/09/10 09:03:09;;;;;;;1.75;0.30;;;13.80;91.30;;;;;;5038294;28;20026;-67
2021/09/10 09:05:35;;;;;;;6.05;0.40;;;13.80;90.90;;;;;;5038455;28;20018;-67
2021/09/10 09:08:17;;;;;;;0.93;0.38;;;13.80;90.90;;;;;;5064379;28;20047;-67
2021/09/10 09:11:07;;;;;;;5.47;0.55;;;13.80;90.70;;;;;;5031648;28;20482;-74
2021/09/10 09:13:38;;;;;;;1.63;0.32;;;14.00;94.70;;;;;;5035473;28;20048;-68
2021/09/10 09:16:30;;;;;;;0.30;0.30;;;14.40;92.10;;;;;;5036811;28;20034;-67
2021/09/10 09:19:01;;;;;;;2.28;0.20;;;14.40;90.50;;;;;;4989344;28;20526;-67
2021/09/10 09:21:35;;;;;;;0.20;0.13;;;14.30;90.20;;;;;;4988769;28;20105;-67
2021/09/10 09:24:21;;;;;;;1.02;0.30;;;14.20;90.00;;;;;;4999635;28;20041;-67
2021/09/10 09:26:49;;;;;;;0.32;0.20;;;14.20;89.40;;;;;;5003950;28;20516;-67
2021/09/10 09:29:18;;;;;;;0.52;0.25;;;14.20;90.00;;;;;;5031938;28;20523;-67
2021/09/10 09:31:56;;;;;;;0.60;0.20;;;14.20;88.80;;;;;;5023318;28;20107;-67
2021/09/10 09:34:50;;;;;;;0.85;0.20;;;14.20;87.20;;;;;;5035265;28;20022;-68
2021/09/10 09:37:18;;;;;;;0.20;0.20;;;14.20;86.60;;;;;;5046256;28;20035;-68
2021/09/10 09:39:58;;;;;;;0.20;0.20;;;14.20;87.20;;;;;;5029170;28;20042;-68
2021/09/10 09:42:28;;;;;;;0.20;0.20;;;14.20;86.60;;;;;;5049841;28;20055;-68
2021/09/10 09:45:14;;;;;;;0.20;0.20;;;14.20;86.10;;;;;;5030659;28;20034;-68
2021/09/10 09:47:40;;;;;;;5.20;0.40;;;14.20;84.30;;;;;;5035369;28;20037;-73
2021/09/10 09:50:09;;;;;;;0.30;0.28;;;14.20;85.70;;;;;;5031069;28;20037;-72
2021/09/10 09:52:35;;;;;;;0.73;0.38;;;14.30;88.00;;;;;;5049333;28;20054;-78
2021/09/10 09:55:04;;;;;;;15.32;1.08;;;14.60;92.40;;;;;;5030410;28;20117;-70
2021/09/10 09:57:30;;;;;;;1.35;0.20;;;15.10;94.50;;;;;;5042657;28;20553;-69
2021/09/10 09:59:57;;;;;;;1.45;0.28;;;15.10;90.20;;;;;;5008749;28;20019;-70
2021/09/10 10:02:23;;;;;;;0.75;0.20;;;15.00;87.00;;;;;;4995321;28;20038;-70
2021/09/10 10:04:49;;;;;;;4.68;0.60;;;14.90;85.20;;;;;;5002135;28;20033;-70
2021/09/10 10:07:17;;;;;;;1.67;0.30;;;14.90;85.20;;;;;;4991894;28;20022;-70
2021/09/10 10:09:47;;;;;;;0.55;0.20;;;14.80;84.90;;;;;;5002265;28;20410;-70
2021/09/10 10:12:15;;;;;;;0.25;0.20;;;14.80;85.30;;;;;;4991842;28;20105;-70
2021/09/10 10:14:40;;;;;;;0.57;0.40;;;14.70;84.90;;;;;;5035976;28;20557;-69
2021/09/10 10:17:32;;;;;;;2.55;0.20;;;14.70;85.10;;;;;;4991523;28;20054;-69
2021/09/10 10:19:58;;;;;;;1.85;0.28;;;14.70;85.00;;;;;;5037230;28;20019;-70
2021/09/10 10:22:34;;;;;;;1.42;0.20;;;14.80;83.90;;;;;;5020966;28;20412;-70
2021/09/10 10:25:01;;;;;;;0.20;0.20;;;14.80;83.50;;;;;;5084480;28;20088;-69
2021/09/10 10:27:37;;;;;;;0.20;0.20;;;14.80;83.80;;;;;;5078245;28;20026;-70
2021/09/10 10:30:14;;;;;;;5.47;0.35;;;14.80;82.90;;;;;;5011018;28;20022;-70
2021/09/10 10:32:42;;;;;;;1.95;0.50;;;14.80;84.00;;;;;;5009841;28;20051;-70
2021/09/10 10:35:22;;;;;;;0.15;0.15;;;14.90;84.50;;;;;;4996902;28;20030;-70
2021/09/10 10:37:53;;;;;;;0.20;0.20;;;14.90;83.40;;;;;;5011169;28;20087;-70
2021/09/10 10:40:48;;;;;;;0.45;0.20;;;14.90;83.50;;;;;;5010965;28;20022;-70
2021/09/10 10:43:22;;;;;;;1.17;0.40;;;14.90;83.40;;;;;;5000508;28;20079;-70
2021/09/10 10:45:48;;;;;;;0.40;0.20;;;14.90;82.70;;;;;;5008944;28;20507;-70
2021/09/10 10:48:32;;;;;;;0.47;0.30;;;15.00;82.80;;;;;;5011197;28;20065;-70
2021/09/10 10:51:01;;;;;;;0.80;0.30;;;15.00;81.20;;;;;;5009371;28;20018;-70
2021/09/10 10:53:27;;;;;;;1.80;0.20;;;14.90;81.90;;;;;;5010600;28;20480;-70
2021/09/10 10:55:53;;;;;;;2.42;0.10;;;15.00;82.00;;;;;;5009291;28;20044;-69
2021/09/10 10:58:23;;;;;;;1.98;0.30;;;15.10;81.10;;;;;;5010702;28;20030;-70
2021/09/10 11:00:49;;;;;;;3.38;0.40;;;15.10;82.10;;;;;;5010581;28;20500;-70
2021/09/10 11:03:14;;;;;;;0.70;0.30;;;15.10;82.80;;;;;;5010867;28;20101;-70
2021/09/10 11:05:42;;;;;;;2.38;0.30;;;15.10;82.90;;;;;;5010760;28;20367;-70
2021/09/10 11:08:08;;;;;;;1.15;0.30;;;15.20;82.70;;;;;;5010770;28;20033;-70
2021/09/10 11:10:34;;;;;;;1.65;0.20;;;15.20;82.10;;;;;;5072894;28;20027;-70
2021/09/10 11:13:00;;;;;;;18.23;1.17;;;15.20;82.60;;;;;;5020081;28;20018;-70
2021/09/10 11:15:33;;;;;;;18.33;1.00;;;15.30;82.30;;;;;;5062411;28;20032;-69
2021/09/10 11:18:01;;;;;;;0.57;0.10;;;15.30;83.10;;;;;;5024900;28;20025;-70
2021/09/10 11:20:31;;;;;;;0.32;0.25;;;15.40;82.20;;;;;;5058814;28;20506;-70
2021/09/10 11:22:57;;;;;;;0.63;0.20;;;15.40;81.40;;;;;;5015101;28;20042;-70
2021/09/10 11:25:23;;;;;;;2.00;0.20;;;15.40;81.60;;;;;;5081251;28;20026;-70
2021/09/10 11:27:49;;;;;;;1.90;0.20;;;15.40;81.70;;;;;;5010433;28;20026;-70
2021/09/10 11:30:15;;;;;;;6.00;0.40;;;15.40;81.70;;;;;;4996691;28;20079;-70
2021/09/10 11:32:42;;;;;;;0.45;0.20;;;15.40;81.00;;;;;;5008905;28;20091;-70
2021/09/10 11:35:22;;;;;;;4.60;0.32;;;15.50;81.60;;;;;;5009573;28;20507;-69
2021/09/10 11:37:55;;;;;;;;;;;15.50;81.80;;;;;;4999432;28;20060;-70
2021/09/10 11:40:55;;;;;;;3.45;0.30;;;15.50;81.10;;;;;;5010299;28;19906;-70
2021/09/10 11:43:29;;;;;;;0.85;0.50;;;15.50;81.30;;;;;;5010333;28;20397;-70
2021/09/10 11:45:59;;;;;;;25.50;1.00;;;15.50;81.60;;;;;;5009996;28;20014;-70
2021/09/10 11:48:27;;;;;;;2.38;0.20;;;15.50;81.10;;;;;;5010196;28;20033;-70
2021/09/10 11:51:00;;;;;;;0.50;0.35;;;15.50;80.50;;;;;;5009684;28;20018;-70
2021/09/10 11:53:36;;;;;;;7.90;0.60;;;15.60;81.50;;;;;;5009932;28;20042;-70
2021/09/10 11:56:06;;;;;;;4.10;0.40;;;15.60;81.30;;;;;;5009540;28;20044;-70
2021/09/10 11:58:32;;;;;;;0.40;0.20;;;15.60;80.70;;;;;;5010425;28;20053;-70
2021/09/10 12:01:33;;;;;;;2.60;0.28;;;15.70;80.40;;;;;;5009689;28;20549;-70
2021/09/10 12:04:06;;;;;;;0.88;0.22;;;15.70;80.60;;;;;;5009681;28;20547;-70
2021/09/10 12:06:37;;;;;;;1.40;0.50;;;15.70;80.80;;;;;;5009774;28;20493;-70
2021/09/10 12:09:09;;;;;;;0.75;0.32;;;15.80;80.90;;;;;;5009680;28;20030;-70
2021/09/10 12:11:36;;;;;;;17.10;1.30;;;15.70;80.70;;;;;;4996338;28;20110;-70
2021/09/10 12:14:13;;;;;;;36.28;1.90;;;15.70;81.60;;;;;;5009524;28;20037;-70
2021/09/10 12:16:39;;;;;;;1.17;0.43;;;15.70;81.70;;;;;;5009596;28;20072;-70
2021/09/10 12:19:05;;;;;;;0.52;0.50;;;15.70;81.20;;;;;;5009416;28;20056;-70
2021/09/10 12:21:32;;;;;;;1.38;0.73;;;15.70;81.00;;;;;;5082021;28;20037;-70
2021/09/10 12:24:12;;;;;;;0.95;0.40;;;15.70;80.80;;;;;;5004171;28;20052;-70
2021/09/10 12:26:48;;;;;;;2.80;0.30;;;15.70;81.90;;;;;;5009748;28;20104;-70
2021/09/10 12:29:24;;;;;;;0.52;0.30;;;15.70;81.20;;;;;;5049312;28;20269;-70
2021/09/10 12:31:51;;;;;;;0.30;0.30;;;15.70;82.10;;;;;;5034217;28;20029;-70
2021/09/10 12:34:16;;;;;;;0.57;0.30;;;15.70;81.40;;;;;;5046611;28;20026;-70
2021/09/10 12:36:45;;;;;;;0.40;0.30;;;15.70;81.60;;;;;;5044250;28;20166;-70
2021/09/10 12:39:10;;;;;;;0.57;0.30;;;15.70;81.20;;;;;;5009353;28;20046;-70
2021/09/10 12:41:37;;;;;;;3.60;0.40;;;15.70;81.60;;;;;;5009422;28;20591;-70
2021/09/10 12:44:08;;;;;;;3.75;0.30;;;15.70;81.40;;;;;;5008944;28;20024;-70
2021/09/10 12:46:38;;;;;;;1.50;0.60;;;15.70;82.20;;;;;;4999248;28;20454;-70
2021/09/10 12:49:05;;;;;;;0.83;0.40;;;15.80;81.50;;;;;;5006329;28;20470;-70
2021/09/10 12:51:31;;;;;;;1.95;0.30;;;15.80;81.40;;;;;;5007885;28;20297;-70
2021/09/10 12:53:58;;;;;;;1.75;0.40;;;15.80;81.50;;;;;;5008467;28;20505;-70
2021/09/10 12:56:24;;;;;;;3.28;0.43;;;15.80;81.80;;;;;;5009043;28;20389;-70
2021/09/10 12:58:49;;;;;;;3.90;0.38;;;15.80;81.90;;;;;;5009006;28;20022;-70
2021/09/10 13:01:15;;;;;;;0.47;0.30;;;15.80;82.50;;;;;;5008733;28;20026;-70
2021/09/10 13:03:42;;;;;;;1.92;0.47;;;15.90;82.00;;;;;;5009166;28;20022;-70
2021/09/10 13:06:08;;;;;;;0.60;0.30;;;15.90;80.90;;;;;;5026373;28;20493;-70
2021/09/10 13:08:34;;;;;;;0.40;0.40;;;15.90;81.40;;;;;;5111862;28;20141;-70
2021/09/10 13:11:00;;;;;;;0.50;0.50;;;15.90;81.40;;;;;;5031704;28;20058;-70
2021/09/10 13:13:28;;;;;;;0.43;0.30;;;15.90;81.20;;;;;;5008015;28;20474;-70
2021/09/10 13:15:54;;;;;;;0.73;0.30;;;15.90;80.30;;;;;;5008646;28;20482;-70
2021/09/10 13:18:21;;;;;;;2.47;0.30;;;15.90;80.70;;;;;;4995051;28;20025;-70
2021/09/10 13:20:47;;;;;;;3.28;0.30;;;15.90;81.10;;;;;;5008937;28;20033;-70
2021/09/10 13:23:12;;;;;;;0.63;0.20;;;16.00;81.00;;;;;;5008906;28;20495;-70